M I D A S
Marine Information and Data Acquisition System
Tripno 1544 of the Zeeleeuw from 2008-08-26 08:33:58 to 2008-08-26 13:35:23
Back to CruiseResearch ActivitiesStationsMapUnderway DataData graphs

EquipmentUnitsComment
TimeDGPSUTC
LatitudeDGPSDM.mWGS84
LongitudeDGPSDM.mWGS84
HeadingGyrodeg 
SOGDGPSknotsSpeed over ground
COGDGPSdegCourse over ground
DepthEcho soundermeters200 kHz
Missing or incorrect values are displayed as -999
Navigation data collected by the RV Zeeleeuw from 2008-08-26 08:36:44 to 2008-08-26 13:38:50
                                                                                    Next 1000 lines
Time Latitude Longitude Heading SOG COG Depth
2008-08-26 08:36:54 51°13.622 2°56.044 112.3 0.9 291 10.6
2008-08-26 08:36:59 51°13.623 2°56.042 112 1.3 297 10.6
2008-08-26 08:37:04 51°13.624 2°56.038 112 1.7 293 10.2
2008-08-26 08:37:09 51°13.625 2°56.034 112.1 1.9 296 10.5
2008-08-26 08:37:13 51°13.626 2°56.031 112.4 2.2 295 10.7
2008-08-26 08:37:19 51°13.628 2°56.025 112.6 2.4 296 -999
2008-08-26 08:37:24 51°13.63 2°56.02 112.6 2.7 295 -999
2008-08-26 08:37:29 51°13.632 2°56.014 112.2 2.9 295 -999
2008-08-26 08:37:34 51°13.633 2°56.008 111.7 2.9 293 -999
2008-08-26 08:37:39 51°13.635 2°56.002 111.5 3 294 -999
2008-08-26 08:37:44 51°13.636 2°55.996 111.2 3.1 292 -999
2008-08-26 08:37:49 51°13.638 2°55.989 111.2 3.3 292 -999
2008-08-26 08:37:54 51°13.64 2°55.982 111 3.4 291 -999
2008-08-26 08:37:59 51°13.642 2°55.975 111.3 3.6 291 -999
2008-08-26 08:38:04 51°13.644 2°55.967 111.8 3.8 290 -999
2008-08-26 08:38:09 51°13.645 2°55.959 112.1 4 291 -999
2008-08-26 08:38:14 51°13.648 2°55.95 112.5 4.1 292 -999
2008-08-26 08:38:19 51°13.65 2°55.941 113.1 4.2 292 -999
2008-08-26 08:38:24 51°13.652 2°55.933 113.4 4.3 293 -999
2008-08-26 08:38:29 51°13.655 2°55.924 113.8 4.4 293 -999
2008-08-26 08:38:34 51°13.657 2°55.915 114 4.4 293 -999
2008-08-26 08:38:39 51°13.659 2°55.906 114.1 4.5 294 -999
2008-08-26 08:38:44 51°13.662 2°55.896 113.9 4.5 294 -999
2008-08-26 08:38:49 51°13.665 2°55.887 113.6 4.5 294 -999
2008-08-26 08:38:54 51°13.667 2°55.878 113 4.5 294 -999
2008-08-26 08:38:59 51°13.67 2°55.869 112.1 4.3 293 -999
2008-08-26 08:39:04 51°13.672 2°55.861 111.2 4.1 293 -999
2008-08-26 08:39:09 51°13.674 2°55.853 110.2 4 293 -999
2008-08-26 08:39:14 51°13.676 2°55.844 109.1 3.9 291 -999
2008-08-26 08:39:19 51°13.678 2°55.837 107.8 3.8 291 -999
2008-08-26 08:39:24 51°13.679 2°55.829 106.3 3.7 290 -999
2008-08-26 08:39:29 51°13.681 2°55.821 105 3.6 289 -999
2008-08-26 08:39:34 51°13.683 2°55.814 103.1 3.5 287 -999
2008-08-26 08:39:39 51°13.684 2°55.807 101.1 3.4 286 -999
2008-08-26 08:39:44 51°13.685 2°55.8 99.2 3.3 284 -999
2008-08-26 08:39:49 51°13.686 2°55.793 97.2 3.1 283 -999
2008-08-26 08:39:54 51°13.687 2°55.787 95.1 3 282 -999
2008-08-26 08:39:59 51°13.688 2°55.781 93.6 2.9 281 -999
2008-08-26 08:40:04 51°13.688 2°55.775 91.9 2.7 279 -999
2008-08-26 08:40:09 51°13.689 2°55.769 90.6 2.6 279 12.7
2008-08-26 08:40:13 51°13.689 2°55.764 89.6 2.5 277 13
2008-08-26 08:40:18 51°13.689 2°55.759 88.3 2.4 277 13.1
2008-08-26 08:40:23 51°13.69 2°55.754 87.1 2.2 275 13.3
2008-08-26 08:40:28 51°13.69 2°55.75 85.6 2 275 13.3
2008-08-26 08:40:33 51°13.69 2°55.746 83.5 1.7 274 13.3
2008-08-26 08:40:38 51°13.69 2°55.743 81.5 1.5 275 13.2
2008-08-26 08:40:42 51°13.69 2°55.74 79.3 1.3 273 13.2
2008-08-26 08:40:47 51°13.691 2°55.738 77.3 1.1 276 13.2
2008-08-26 08:40:52 51°13.691 2°55.736 74.1 0.9 274 13.4
2008-08-26 08:40:57 51°13.691 2°55.734 71.7 0.8 279 13.6
2008-08-26 08:41:02 51°13.691 2°55.733 69.1 0.7 281 13.5
2008-08-26 08:41:07 51°13.691 2°55.731 66.7 0.6 286 13.6
2008-08-26 08:41:11 51°13.692 2°55.731 64.5 0.5 294 13.5
2008-08-26 08:41:17 51°13.692 2°55.73 61.9 0.4 306 13.5
2008-08-26 08:41:21 51°13.692 2°55.729 58.9 0.4 323 13.4
2008-08-26 08:41:26 51°13.693 2°55.729 56.7 0.4 345 13.5
2008-08-26 08:41:31 51°13.693 2°55.729 53.9 0.5 358 13.5
2008-08-26 08:41:36 51°13.694 2°55.729 50.8 0.7 14 13.6
2008-08-26 08:41:41 51°13.695 2°55.73 46.9 0.9 22 13.7
2008-08-26 08:41:45 51°13.696 2°55.731 43.5 1.1 21 13.9
2008-08-26 08:41:50 51°13.698 2°55.732 37.6 1.4 20 14
2008-08-26 08:41:55 51°13.7 2°55.733 33.3 1.8 19 13.8
2008-08-26 08:42:00 51°13.703 2°55.734 26 2.1 13 13.7
2008-08-26 08:42:05 51°13.707 2°55.735 19.2 2.5 7 13.6
2008-08-26 08:42:10 51°13.71 2°55.735 13.3 2.9 1 13.5
2008-08-26 08:42:15 51°13.715 2°55.735 5.4 3.2 356 13.2
2008-08-26 08:42:20 51°13.72 2°55.733 355.5 3.8 347 12.9
2008-08-26 08:42:25 51°13.725 2°55.73 349.4 4.2 342 12.6
2008-08-26 08:42:30 51°13.731 2°55.727 341.8 4.5 338 12.6
2008-08-26 08:42:35 51°13.737 2°55.722 338.2 5 335 12.5
2008-08-26 08:42:40 51°13.744 2°55.717 335.5 5.3 333 12.5
2008-08-26 08:42:45 51°13.751 2°55.711 333.4 5.7 331 12.3
2008-08-26 08:42:50 51°13.758 2°55.704 332.2 6 330 12.3
2008-08-26 08:42:55 51°13.765 2°55.697 331.3 6.2 329 12.2
2008-08-26 08:43:00 51°13.773 2°55.69 331 6.5 330 12.2
2008-08-26 08:43:05 51°13.781 2°55.683 331.3 6.7 330 12.1
2008-08-26 08:43:09 51°13.788 2°55.677 332.3 6.9 331 12.3
2008-08-26 08:43:15 51°13.798 2°55.668 333.1 7.1 332 12.5
2008-08-26 08:43:20 51°13.807 2°55.66 333.8 7.2 332 12.5
2008-08-26 08:43:25 51°13.816 2°55.653 334.4 7.3 333 12.4
2008-08-26 08:43:30 51°13.825 2°55.645 335.2 7.4 333 12.8
2008-08-26 08:43:35 51°13.835 2°55.638 335.3 7.5 334 12.8
2008-08-26 08:43:40 51°13.844 2°55.63 335.6 7.6 334 12.7
2008-08-26 08:43:45 51°13.854 2°55.623 335.7 7.7 334 12.6
2008-08-26 08:43:50 51°13.863 2°55.616 336 7.8 334 12.7
2008-08-26 08:43:55 51°13.873 2°55.608 336.1 7.8 334 12.5
2008-08-26 08:44:00 51°13.883 2°55.6 336.1 7.9 334 12.4
2008-08-26 08:44:05 51°13.893 2°55.593 336.7 7.9 335 12.4
2008-08-26 08:44:10 51°13.903 2°55.585 336.9 7.9 335 12.4
2008-08-26 08:44:15 51°13.913 2°55.578 336.9 8 336 12.6
2008-08-26 08:44:20 51°13.923 2°55.571 336.9 8 335 12.7
2008-08-26 08:44:25 51°13.933 2°55.563 336.9 8 335 12.9
2008-08-26 08:44:29 51°13.941 2°55.557 336.8 6.1 335 13
2008-08-26 08:44:35 51°13.953 2°55.548 336.3 7.8 334 12.9
2008-08-26 08:44:40 51°13.963 2°55.54 335.9 8.1 334 13
2008-08-26 08:44:45 51°13.973 2°55.533 336.3 8 335 13
2008-08-26 08:44:49 51°13.981 2°55.527 337.3 8 334 13
2008-08-26 08:44:55 51°13.993 2°55.518 337.3 8 334 12.9
2008-08-26 08:45:00 51°14.003 2°55.509 335.9 8 333 12.9
2008-08-26 08:45:05 51°14.013 2°55.501 334.7 8 332 12.9
2008-08-26 08:45:10 51°14.023 2°55.494 335.3 8 334 12.8
2008-08-26 08:45:15 51°14.033 2°55.486 335.8 8 333 12.6
2008-08-26 08:45:20 51°14.043 2°55.478 335.8 8 334 12.8
2008-08-26 08:45:25 51°14.053 2°55.47 335.8 8 334 13
2008-08-26 08:45:29 51°14.061 2°55.463 335.6 8.1 334 13
2008-08-26 08:45:35 51°14.073 2°55.455 336.1 8.1 336 12.9
2008-08-26 08:45:40 51°14.083 2°55.447 337.2 8.2 335 12.9
2008-08-26 08:45:45 51°14.093 2°55.439 337.4 8.3 335 13
2008-08-26 08:45:50 51°14.104 2°55.431 336.4 8.5 333 12.9
2008-08-26 08:45:55 51°14.115 2°55.422 335.5 8.6 334 12.9
2008-08-26 08:46:00 51°14.125 2°55.413 335.4 8.8 333 12.9
2008-08-26 08:46:05 51°14.136 2°55.405 335.8 8.9 333 12.9
2008-08-26 08:46:10 51°14.147 2°55.395 335.7 8.9 332 12.9
2008-08-26 08:46:15 51°14.158 2°55.385 334.1 9.1 330 12.9
2008-08-26 08:46:20 51°14.169 2°55.374 331.6 9.2 327 12.9
2008-08-26 08:46:25 51°14.18 2°55.363 330.2 9.3 328 12.9
2008-08-26 08:46:30 51°14.191 2°55.352 329.5 9.4 326 13
2008-08-26 08:46:35 51°14.202 2°55.34 328.1 9.5 324 12.9
2008-08-26 08:46:40 51°14.212 2°55.327 326.5 9.5 323 12.7
2008-08-26 08:46:45 51°14.222 2°55.314 324.7 9.6 321 12.5
2008-08-26 08:46:50 51°14.233 2°55.3 322.9 9.7 319 12.6
2008-08-26 08:46:55 51°14.243 2°55.286 321.2 9.8 318 12.9
2008-08-26 08:47:00 51°14.253 2°55.271 320.3 9.8 318 12.5
2008-08-26 08:47:05 51°14.263 2°55.257 320 10 317 12.4
2008-08-26 08:47:09 51°14.271 2°55.244 319.1 10.1 316 12.3
2008-08-26 08:47:15 51°14.283 2°55.226 317.8 10.1 315 12.3
2008-08-26 08:47:20 51°14.293 2°55.209 317.1 10.2 315 12.3
2008-08-26 08:47:25 51°14.303 2°55.194 317.1 10.3 315 12.4
2008-08-26 08:47:30 51°14.313 2°55.177 316.4 10.3 314 12.6
2008-08-26 08:47:35 51°14.323 2°55.161 316.1 10.4 314 12.9
2008-08-26 08:47:40 51°14.333 2°55.144 315.8 10.4 313 12.8
2008-08-26 08:47:45 51°14.343 2°55.127 315.5 10.5 314 12.7
2008-08-26 08:47:50 51°14.353 2°55.11 315.6 10.6 314 12.6
2008-08-26 08:47:55 51°14.364 2°55.094 316.3 10.6 316 12.2
2008-08-26 08:48:00 51°14.374 2°55.078 317 10.6 317 12.5
2008-08-26 08:48:05 51°14.385 2°55.062 318.1 10.6 318 12.3
2008-08-26 08:48:10 51°14.396 2°55.046 319.3 10.7 318 12.4
2008-08-26 08:48:15 51°14.407 2°55.031 319.3 10.7 318 12.1
2008-08-26 08:48:20 51°14.418 2°55.014 317.9 10.7 317 12.1
2008-08-26 08:48:25 51°14.429 2°54.999 317 10.7 318 12.1
2008-08-26 08:48:29 51°14.438 2°54.986 317.2 10.6 319 12.2
2008-08-26 08:48:35 51°14.451 2°54.968 317.3 10.6 318 12.5
2008-08-26 08:48:40 51°14.462 2°54.952 316.8 10.6 318 12.5
2008-08-26 08:48:45 51°14.473 2°54.936 316.4 10.6 318 12.2
2008-08-26 08:48:50 51°14.484 2°54.921 316.5 10.6 318 12.1
2008-08-26 08:48:55 51°14.495 2°54.905 316.5 10.6 318 12
2008-08-26 08:49:00 51°14.505 2°54.89 316.2 10.5 317 12.1
2008-08-26 08:49:05 51°14.516 2°54.874 315.6 10.5 317 12.1
2008-08-26 08:49:10 51°14.527 2°54.858 314.8 10.5 316 12.2
2008-08-26 08:49:15 51°14.537 2°54.842 313.1 10.4 315 11.9
2008-08-26 08:49:20 51°14.546 2°54.825 311.2 10.3 312 11.9
2008-08-26 08:49:25 51°14.556 2°54.807 308.6 10.3 309 11.9
2008-08-26 08:49:30 51°14.564 2°54.789 306.1 10.2 307 11.9
2008-08-26 08:49:35 51°14.572 2°54.77 303.2 10.1 303 12
2008-08-26 08:49:40 51°14.579 2°54.752 300.4 10 301 11.9
2008-08-26 08:49:45 51°14.586 2°54.732 298.2 9.9 297 11.9
2008-08-26 08:49:50 51°14.591 2°54.713 295.2 9.9 295 11.8
2008-08-26 08:49:55 51°14.597 2°54.692 292.4 9.8 292 11.9
2008-08-26 08:50:00 51°14.601 2°54.672 289.6 9.8 291 11.9
2008-08-26 08:50:05 51°14.606 2°54.652 287.5 9.8 289 12
2008-08-26 08:50:10 51°14.61 2°54.631 287 9.8 290 12
2008-08-26 08:50:15 51°14.615 2°54.611 287.1 9.9 290 12
2008-08-26 08:50:20 51°14.619 2°54.59 287.6 9.9 291 12.1
2008-08-26 08:50:25 51°14.624 2°54.57 288 9.9 291 12.1
2008-08-26 08:50:30 51°14.629 2°54.549 288.1 10 291 12.1
2008-08-26 08:50:35 51°14.634 2°54.528 288 10.1 290 12.3
2008-08-26 08:50:40 51°14.639 2°54.507 287.9 10.1 291 12.2
2008-08-26 08:50:45 51°14.644 2°54.486 288.2 10.2 291 12.2
2008-08-26 08:50:50 51°14.649 2°54.465 288.6 10.3 291 12.3
2008-08-26 08:50:55 51°14.654 2°54.443 288.8 10.5 292 12.3
2008-08-26 08:51:00 51°14.66 2°54.422 289.5 10.5 292 12.2
2008-08-26 08:51:05 51°14.666 2°54.4 290.2 10.7 293 12.2
2008-08-26 08:51:09 51°14.67 2°54.383 290.6 10.7 293 12.3
2008-08-26 08:51:15 51°14.678 2°54.356 291 10.8 293 12.1
2008-08-26 08:51:20 51°14.683 2°54.334 290.8 10.9 292 12.2
2008-08-26 08:51:25 51°14.689 2°54.312 290.5 11 292 12.2
2008-08-26 08:51:30 51°14.694 2°54.289 289.6 11 291 12.2
2008-08-26 08:51:35 51°14.7 2°54.266 288.9 11 290 12.3
2008-08-26 08:51:40 51°14.705 2°54.243 288.3 11.1 290 12.2
2008-08-26 08:51:45 51°14.71 2°54.22 287.9 11.1 289 12.2
2008-08-26 08:51:50 51°14.715 2°54.197 287.6 11.1 290 12.2
2008-08-26 08:51:55 51°14.72 2°54.174 287.3 11.1 289 12.2
2008-08-26 08:52:00 51°14.725 2°54.151 287.5 11.1 290 12.1
2008-08-26 08:52:05 51°14.73 2°54.128 287.7 11.1 288 12.1
2008-08-26 08:52:10 51°14.735 2°54.104 286.7 11.1 288 12
2008-08-26 08:52:15 51°14.74 2°54.081 286.1 11.2 288 12
2008-08-26 08:52:20 51°14.745 2°54.057 285.9 11.1 288 11.9
2008-08-26 08:52:25 51°14.749 2°54.034 285.5 11.1 287 11.9
2008-08-26 08:52:30 51°14.753 2°54.011 284.7 11.1 286 12.3
2008-08-26 08:52:35 51°14.757 2°53.987 284.1 11.2 286 12
2008-08-26 08:52:40 51°14.762 2°53.963 284.4 11.3 287 11.8
2008-08-26 08:52:45 51°14.767 2°53.939 285.2 11.3 287 11.7
2008-08-26 08:52:50 51°14.771 2°53.915 285.7 11.4 287 12
2008-08-26 08:52:55 51°14.776 2°53.891 286.3 11.4 288 11.8
2008-08-26 08:53:00 51°14.781 2°53.867 286.9 11.4 288 11.8
2008-08-26 08:53:05 51°14.785 2°53.843 286.3 11.5 285 12
2008-08-26 08:53:10 51°14.789 2°53.818 285 11.5 285 12
2008-08-26 08:53:15 51°14.793 2°53.794 283.9 11.5 284 11.9
2008-08-26 08:53:20 51°14.797 2°53.769 283.3 11.5 284 11.7
2008-08-26 08:53:25 51°14.801 2°53.744 283 11.5 284 11.9
2008-08-26 08:53:30 51°14.805 2°53.72 283 11.5 283 11.8
2008-08-26 08:53:35 51°14.808 2°53.695 282.5 11.5 283 11.9
2008-08-26 08:53:40 51°14.812 2°53.67 282.3 11.6 283 12.1
2008-08-26 08:53:45 51°14.815 2°53.645 282.2 11.5 284 12.3
2008-08-26 08:53:50 51°14.819 2°53.62 282.4 11.5 284 12.3
2008-08-26 08:53:55 51°14.823 2°53.595 282.2 11.6 283 12.3
2008-08-26 08:54:00 51°14.826 2°53.571 282 11.5 282 12.3
2008-08-26 08:54:05 51°14.829 2°53.545 281.2 11.5 282 12.3
2008-08-26 08:54:10 51°14.833 2°53.521 280.9 11.5 282 12.3
2008-08-26 08:54:15 51°14.836 2°53.496 280.7 11.5 281 12.3
2008-08-26 08:54:20 51°14.839 2°53.471 280.1 11.5 281 12.4
2008-08-26 08:54:25 51°14.842 2°53.446 279.7 11.5 280 12.4
2008-08-26 08:54:30 51°14.845 2°53.421 280 11.5 281 12.5
2008-08-26 08:54:35 51°14.847 2°53.396 279.6 11.5 280 12.3
2008-08-26 08:54:40 51°14.85 2°53.371 279.6 11.5 281 12.3
2008-08-26 08:54:45 51°14.854 2°53.346 280 11.5 281 12.7
2008-08-26 08:54:50 51°14.857 2°53.321 280.2 11.5 281 12.3
2008-08-26 08:54:55 51°14.86 2°53.296 280.1 11.5 281 12.4
2008-08-26 08:55:00 51°14.863 2°53.271 280.6 11.6 282 12.2
2008-08-26 08:55:05 51°14.867 2°53.246 281.6 11.6 283 12.3
2008-08-26 08:55:10 51°14.87 2°53.221 281.7 11.6 282 12.3
2008-08-26 08:55:15 51°14.873 2°53.196 280.8 11.5 281 12.3
2008-08-26 08:55:20 51°14.876 2°53.171 280.8 11.5 281 12.3
2008-08-26 08:55:25 51°14.879 2°53.146 280.5 11.6 281 12.4
2008-08-26 08:55:30 51°14.883 2°53.121 280.5 11.5 281 12.4
2008-08-26 08:55:35 51°14.885 2°53.097 280.4 11.5 281 12.2
2008-08-26 08:55:40 51°14.889 2°53.072 280.7 11.5 282 12.3
2008-08-26 08:55:45 51°14.892 2°53.046 280.8 11.5 282 12.3
2008-08-26 08:55:50 51°14.895 2°53.022 281 11.5 282 12.3
2008-08-26 08:55:55 51°14.899 2°52.997 281.5 11.5 283 12.3
2008-08-26 08:56:00 51°14.903 2°52.972 282.3 11.5 283 12.3
2008-08-26 08:56:05 51°14.906 2°52.947 282.4 11.6 283 12.3
2008-08-26 08:56:10 51°14.91 2°52.922 283 11.6 285 12.2
2008-08-26 08:56:15 51°14.914 2°52.897 283.4 11.6 284 12.3
2008-08-26 08:56:20 51°14.918 2°52.872 283.6 11.6 285 12.2
2008-08-26 08:56:25 51°14.922 2°52.848 283.6 11.6 284 12.3
2008-08-26 08:56:30 51°14.926 2°52.823 283.4 11.6 284 12.2
2008-08-26 08:56:35 51°14.93 2°52.798 283.1 11.6 284 12.3
2008-08-26 08:56:40 51°14.934 2°52.773 283.5 11.5 284 12.2
2008-08-26 08:56:45 51°14.937 2°52.748 283.1 11.5 283 12.3
2008-08-26 08:56:50 51°14.941 2°52.724 282.4 11.5 283 12.2
2008-08-26 08:56:55 51°14.944 2°52.699 281.7 11.6 282 12.3
2008-08-26 08:57:00 51°14.948 2°52.674 281.5 11.5 283 12.3
2008-08-26 08:57:05 51°14.952 2°52.649 282.2 11.5 284 12.2
2008-08-26 08:57:10 51°14.956 2°52.624 282.7 11.5 285 12.1
2008-08-26 08:57:15 51°14.96 2°52.6 283.1 11.5 284 12.2
2008-08-26 08:57:20 51°14.964 2°52.575 283.3 11.5 284 12.2
2008-08-26 08:57:25 51°14.968 2°52.551 283.3 11.5 284 12.1
2008-08-26 08:57:30 51°14.972 2°52.526 283.3 11.5 284 12.2
2008-08-26 08:57:35 51°14.975 2°52.501 283.3 11.5 283 12.2
2008-08-26 08:57:40 51°14.979 2°52.476 282.6 11.5 282 12.2
2008-08-26 08:57:45 51°14.982 2°52.452 281.5 11.5 282 12.3
2008-08-26 08:57:50 51°14.985 2°52.427 281 11.4 282 12.2
2008-08-26 08:57:55 51°14.989 2°52.402 280.8 11.4 282 12.3
2008-08-26 08:58:00 51°14.992 2°52.377 280.5 11.4 281 12.4
2008-08-26 08:58:05 51°14.995 2°52.353 280.2 11.5 282 12.3
2008-08-26 08:58:10 51°14.998 2°52.328 280.2 11.4 282 12.3
2008-08-26 08:58:15 51°15.001 2°52.303 280.3 11.4 281 12.3
2008-08-26 08:58:20 51°15.004 2°52.278 280.4 11.4 282 12.5
2008-08-26 08:58:25 51°15.008 2°52.254 280.7 11.5 282 12.4
2008-08-26 08:58:30 51°15.011 2°52.229 280.4 11.5 282 12.5
2008-08-26 08:58:35 51°15.014 2°52.205 280.7 11.4 282 12.5
2008-08-26 08:58:40 51°15.018 2°52.18 280.8 11.4 282 12.5
2008-08-26 08:58:45 51°15.021 2°52.155 280.8 11.4 282 12.6
2008-08-26 08:58:50 51°15.024 2°52.131 281.2 11.4 283 12.6
2008-08-26 08:58:55 51°15.028 2°52.106 281.6 11.5 283 12.7
2008-08-26 08:59:00 51°15.031 2°52.081 281.5 11.5 283 12.5
2008-08-26 08:59:05 51°15.035 2°52.057 282.4 11.5 285 12.7
2008-08-26 08:59:10 51°15.039 2°52.032 283 11.5 284 12.7
2008-08-26 08:59:15 51°15.043 2°52.007 283.1 11.5 285 12.8
2008-08-26 08:59:20 51°15.048 2°51.983 283.7 11.5 285 12.8
2008-08-26 08:59:25 51°15.052 2°51.958 283.7 11.5 285 13
2008-08-26 08:59:30 51°15.056 2°51.934 283.8 11.5 286 12.9
2008-08-26 08:59:35 51°15.06 2°51.909 284.4 11.5 285 13.2
2008-08-26 08:59:40 51°15.064 2°51.885 283.7 11.5 285 13.1
2008-08-26 08:59:45 51°15.068 2°51.86 283 11.4 284 13.1
2008-08-26 08:59:50 51°15.072 2°51.836 282.1 11.4 283 13.5
2008-08-26 08:59:55 51°15.076 2°51.812 282.1 11.4 283 13.9
2008-08-26 09:00:00 51°15.079 2°51.787 281.6 11.4 282 13.4
2008-08-26 09:00:05 51°15.082 2°51.762 281.1 11.4 283 13.4
2008-08-26 09:00:10 51°15.086 2°51.738 281 11.4 282 13.4
2008-08-26 09:00:15 51°15.089 2°51.713 281.3 11.5 283 13.5
2008-08-26 09:00:20 51°15.093 2°51.689 281.1 11.4 282 13.5
2008-08-26 09:00:25 51°15.096 2°51.664 280.8 11.4 283 13.5
2008-08-26 09:00:30 51°15.1 2°51.639 281 11.4 282 13.6
2008-08-26 09:00:35 51°15.103 2°51.615 280.8 11.4 283 13.6
2008-08-26 09:00:40 51°15.106 2°51.59 280.8 11.4 282 13.7
2008-08-26 09:00:45 51°15.11 2°51.565 281.4 11.4 283 13.8
2008-08-26 09:00:50 51°15.113 2°51.541 281.1 11.4 282 13.7
2008-08-26 09:00:55 51°15.117 2°51.516 280.8 11.4 283 13.7
2008-08-26 09:01:00 51°15.121 2°51.492 281.5 11.5 285 13.9
2008-08-26 09:01:05 51°15.125 2°51.467 282.4 11.5 284 13.9
2008-08-26 09:01:10 51°15.129 2°51.443 282.9 11.4 285 13.7
2008-08-26 09:01:15 51°15.133 2°51.418 283.6 11.5 286 13.7
2008-08-26 09:01:20 51°15.138 2°51.394 283.7 11.4 285 13.9
2008-08-26 09:01:25 51°15.141 2°51.369 283.7 11.4 285 13.8
2008-08-26 09:01:30 51°15.146 2°51.345 283.1 11.4 284 13.9
2008-08-26 09:01:35 51°15.149 2°51.321 282.1 11.5 284 14
2008-08-26 09:01:40 51°15.153 2°51.296 282.1 11.4 284 13.9
2008-08-26 09:01:45 51°15.157 2°51.271 282.5 11.5 285 14
2008-08-26 09:01:50 51°15.161 2°51.247 283.1 11.5 285 14.1
2008-08-26 09:01:55 51°15.165 2°51.222 283.4 11.5 286 14
2008-08-26 09:02:00 51°15.17 2°51.198 283.7 11.5 286 14.1
2008-08-26 09:02:05 51°15.174 2°51.173 283.9 11.5 286 14.1
2008-08-26 09:02:10 51°15.179 2°51.149 284.3 11.5 287 14
2008-08-26 09:02:15 51°15.183 2°51.125 284.6 11.4 286 14.2
2008-08-26 09:02:20 51°15.187 2°51.101 284.4 11.4 285 14.2
2008-08-26 09:02:25 51°15.192 2°51.076 283.8 11.4 286 14.3
2008-08-26 09:02:30 51°15.196 2°51.052 283.9 11.4 286 14.2
2008-08-26 09:02:35 51°15.201 2°51.028 283.9 11.4 285 14.1
2008-08-26 09:02:40 51°15.205 2°51.003 283.9 11.4 285 14.3
2008-08-26 09:02:45 51°15.209 2°50.979 283.7 11.5 286 14.4
2008-08-26 09:02:50 51°15.213 2°50.955 283.9 11.5 286 14.3
2008-08-26 09:02:55 51°15.218 2°50.93 284.3 11.5 286 14.2
2008-08-26 09:03:00 51°15.222 2°50.906 284.3 11.5 286 14.2
2008-08-26 09:03:05 51°15.226 2°50.882 284 11.5 286 14.4
2008-08-26 09:03:10 51°15.231 2°50.857 284.2 11.5 286 14.5
2008-08-26 09:03:15 51°15.235 2°50.833 284.4 11.5 287 14.5
2008-08-26 09:03:20 51°15.24 2°50.809 285.1 11.5 287 14.6
2008-08-26 09:03:25 51°15.245 2°50.784 285.7 11.5 288 14.3
2008-08-26 09:03:30 51°15.25 2°50.76 286.3 11.6 289 14.7
2008-08-26 09:03:35 51°15.256 2°50.736 286.9 11.5 289 14.5
2008-08-26 09:03:40 51°15.261 2°50.712 287.3 11.5 289 14.4
2008-08-26 09:03:45 51°15.266 2°50.688 286.8 11.5 287 14.4
2008-08-26 09:03:50 51°15.27 2°50.664 285.4 11.5 287 14.5
2008-08-26 09:03:55 51°15.276 2°50.64 285.7 11.5 288 14.5
2008-08-26 09:04:00 51°15.28 2°50.616 286.1 11.5 288 14.6
2008-08-26 09:04:05 51°15.285 2°50.591 286.3 11.5 289 14.4
2008-08-26 09:04:10 51°15.29 2°50.567 286.4 11.5 288 14.5
2008-08-26 09:04:15 51°15.296 2°50.543 286.7 11.5 289 14.6
2008-08-26 09:04:20 51°15.301 2°50.519 286.9 11.5 289 14.8
2008-08-26 09:04:25 51°15.306 2°50.495 287 11.5 289 14.5
2008-08-26 09:04:30 51°15.311 2°50.471 286.7 11.5 289 14.6
2008-08-26 09:04:35 51°15.316 2°50.447 286.6 11.5 289 14.5
2008-08-26 09:04:40 51°15.321 2°50.423 286.5 11.5 288 14.7
2008-08-26 09:04:45 51°15.326 2°50.399 286.4 11.5 289 14.5
2008-08-26 09:04:50 51°15.331 2°50.375 286.6 11.5 288 14.6
2008-08-26 09:04:55 51°15.336 2°50.351 286.6 11.5 288 14.7
2008-08-26 09:05:00 51°15.341 2°50.326 286.5 11.5 288 14.7
2008-08-26 09:05:05 51°15.346 2°50.302 286.6 11.5 289 14.6
2008-08-26 09:05:10 51°15.351 2°50.278 286.7 11.5 288 14.7
2008-08-26 09:05:15 51°15.356 2°50.254 286.4 11.5 289 14.8
2008-08-26 09:05:20 51°15.361 2°50.23 286.4 11.5 288 14.7
2008-08-26 09:05:25 51°15.366 2°50.206 286.5 11.5 288 14.7
2008-08-26 09:05:30 51°15.372 2°50.181 286.5 11.5 289 14.6
2008-08-26 09:05:35 51°15.377 2°50.157 286.6 11.5 288 14.6
2008-08-26 09:05:40 51°15.382 2°50.133 286.6 11.5 288 14.5
2008-08-26 09:05:45 51°15.387 2°50.109 286.3 11.5 288 14.5
2008-08-26 09:05:50 51°15.392 2°50.085 286.4 11.5 288 14.6
2008-08-26 09:05:55 51°15.397 2°50.061 286.2 11.5 288 14.6
2008-08-26 09:06:00 51°15.402 2°50.036 286.3 11.5 289 14.8
2008-08-26 09:06:05 51°15.407 2°50.012 286.4 11.5 288 14.7
2008-08-26 09:06:10 51°15.412 2°49.988 286.2 11.5 288 14.8
2008-08-26 09:06:15 51°15.417 2°49.964 286.5 11.5 288 14.6
2008-08-26 09:06:20 51°15.422 2°49.94 286.1 11.5 289 14.7
2008-08-26 09:06:25 51°15.427 2°49.915 286.4 11.4 288 14.7
2008-08-26 09:06:30 51°15.432 2°49.891 286.2 11.5 288 14.6
2008-08-26 09:06:35 51°15.437 2°49.867 285.6 11.5 287 14.6
2008-08-26 09:06:40 51°15.442 2°49.843 285.3 11.5 288 14.7
2008-08-26 09:06:45 51°15.446 2°49.818 285.8 11.5 288 14.7
2008-08-26 09:06:50 51°15.452 2°49.794 286.1 11.5 288 14.9
2008-08-26 09:06:55 51°15.456 2°49.77 286.3 11.5 287 14.9
2008-08-26 09:07:00 51°15.461 2°49.746 285.7 11.5 288 14.9
2008-08-26 09:07:05 51°15.466 2°49.722 286 11.5 288 14.8
2008-08-26 09:07:10 51°15.471 2°49.698 286.1 11.5 288 14.9
2008-08-26 09:07:15 51°15.476 2°49.674 286.1 11.5 288 14.8
2008-08-26 09:07:20 51°15.481 2°49.65 285.8 11.5 287 14.7
2008-08-26 09:07:25 51°15.486 2°49.625 285.8 11.5 288 14.9
2008-08-26 09:07:30 51°15.491 2°49.601 285.8 11.4 287 14.8
2008-08-26 09:07:35 51°15.495 2°49.577 285 11.4 287 14.8
2008-08-26 09:07:40 51°15.5 2°49.553 284.4 11.4 288 14.8
2008-08-26 09:07:45 51°15.505 2°49.529 285.3 11.5 288 14.8
2008-08-26 09:07:50 51°15.51 2°49.505 285.6 11.4 288 14.8
2008-08-26 09:07:55 51°15.515 2°49.481 285.6 11.4 288 14.8
2008-08-26 09:08:00 51°15.519 2°49.457 285.5 11.5 288 14.9
2008-08-26 09:08:05 51°15.525 2°49.433 286.2 11.4 288 14.8
2008-08-26 09:08:10 51°15.529 2°49.409 285.8 11.4 287 14.8
2008-08-26 09:08:15 51°15.534 2°49.385 285.6 11.5 288 14.7
2008-08-26 09:08:20 51°15.539 2°49.361 285.7 11.4 289 14.7
2008-08-26 09:08:25 51°15.545 2°49.337 286.3 11.4 289 14.4
2008-08-26 09:08:30 51°15.549 2°49.313 286.5 11.4 288 14.4
2008-08-26 09:08:35 51°15.555 2°49.289 286.1 11.4 289 14.2
2008-08-26 09:08:40 51°15.559 2°49.265 285.9 11.4 288 14
2008-08-26 09:08:45 51°15.564 2°49.241 285.6 11.4 288 13.9
2008-08-26 09:08:50 51°15.569 2°49.217 285.6 11.4 288 13.8
2008-08-26 09:08:55 51°15.574 2°49.193 285.3 11.4 287 13.5
2008-08-26 09:09:00 51°15.579 2°49.169 285.4 11.4 287 13.4
2008-08-26 09:09:05 51°15.583 2°49.145 285 11.4 287 13.2
2008-08-26 09:09:10 51°15.588 2°49.121 284.9 11.4 287 13.1
2008-08-26 09:09:15 51°15.593 2°49.097 285.1 11.4 288 12.9
2008-08-26 09:09:20 51°15.598 2°49.073 285.8 11.4 288 12.8
2008-08-26 09:09:25 51°15.603 2°49.049 285.9 11.4 288 12.7
2008-08-26 09:09:30 51°15.608 2°49.025 286.1 11.5 288 12.6
2008-08-26 09:09:35 51°15.612 2°49 285.9 11.5 287 12.4
2008-08-26 09:09:40 51°15.617 2°48.976 285.4 11.5 287 12.3
2008-08-26 09:09:45 51°15.622 2°48.952 285.6 11.5 288 12.4
2008-08-26 09:09:50 51°15.627 2°48.928 285.6 11.5 287 12.5
2008-08-26 09:09:55 51°15.632 2°48.904 285.8 11.5 288 12.5
2008-08-26 09:10:00 51°15.636 2°48.879 286.2 11.5 288 12.4
2008-08-26 09:10:05 51°15.641 2°48.855 285.7 11.5 288 12.3
2008-08-26 09:10:10 51°15.646 2°48.831 285.9 11.5 289 12.4
2008-08-26 09:10:15 51°15.651 2°48.807 285.9 11.5 287 12.4
2008-08-26 09:10:20 51°15.656 2°48.783 285.9 11.5 288 12.4
2008-08-26 09:10:25 51°15.661 2°48.759 285.7 11.5 288 12.3
2008-08-26 09:10:30 51°15.666 2°48.734 286 11.5 288 12.5
2008-08-26 09:10:35 51°15.67 2°48.71 285.2 11.5 286 12.5
2008-08-26 09:10:40 51°15.675 2°48.686 284.7 11.5 287 12.5
2008-08-26 09:10:45 51°15.679 2°48.661 284.7 11.5 287 12.5
2008-08-26 09:10:50 51°15.684 2°48.636 284.4 11.5 286 12.8
2008-08-26 09:10:55 51°15.688 2°48.612 283.5 11.4 285 12.7
2008-08-26 09:11:00 51°15.692 2°48.587 282.9 11.5 285 12.9
2008-08-26 09:11:05 51°15.696 2°48.563 283 11.5 285 12.9
2008-08-26 09:11:10 51°15.7 2°48.538 283 11.5 285 12.8
2008-08-26 09:11:15 51°15.704 2°48.513 283 11.4 285 12.8
2008-08-26 09:11:20 51°15.708 2°48.489 282.7 11.5 284 12.9
2008-08-26 09:11:25 51°15.712 2°48.464 282.3 11.4 284 13
2008-08-26 09:11:30 51°15.716 2°48.44 282.5 11.5 285 13.2
2008-08-26 09:11:35 51°15.72 2°48.415 283 11.4 285 13.2
2008-08-26 09:11:40 51°15.724 2°48.391 283.3 11.4 285 13.2
2008-08-26 09:11:45 51°15.728 2°48.366 283.1 11.5 285 13.4
2008-08-26 09:11:50 51°15.732 2°48.342 283.6 11.5 286 13.4
2008-08-26 09:11:55 51°15.737 2°48.317 283.2 11.4 286 13.6
2008-08-26 09:12:00 51°15.741 2°48.293 283.6 11.5 286 13.7
2008-08-26 09:12:05 51°15.746 2°48.269 284.2 11.4 287 13.8
2008-08-26 09:12:10 51°15.751 2°48.245 284.9 11.4 288 13.9
2008-08-26 09:12:15 51°15.755 2°48.221 285.1 11.4 287 14.1
2008-08-26 09:12:20 51°15.76 2°48.197 284.8 11.4 287 14.2
2008-08-26 09:12:25 51°15.764 2°48.173 284.3 11.4 287 14.4
2008-08-26 09:12:30 51°15.769 2°48.149 284.4 11.4 288 14.8
2008-08-26 09:12:35 51°15.774 2°48.125 284.2 11.3 287 14.7
2008-08-26 09:12:40 51°15.778 2°48.101 284.3 11.4 287 14.9
2008-08-26 09:12:45 51°15.783 2°48.076 284.4 11.3 287 15.2
2008-08-26 09:12:50 51°15.788 2°48.052 284.4 11.4 287 15.2
2008-08-26 09:12:55 51°15.792 2°48.028 284.1 11.4 287 15.3
2008-08-26 09:13:00 51°15.797 2°48.004 283.9 11.4 287 15.5
2008-08-26 09:13:05 51°15.801 2°47.98 284.2 11.4 288 15.8
2008-08-26 09:13:10 51°15.806 2°47.956 285.1 11.4 289 15.8
2008-08-26 09:13:15 51°15.811 2°47.932 285.7 11.4 288 16.1
2008-08-26 09:13:20 51°15.817 2°47.908 285.7 11.4 289 16.2
2008-08-26 09:13:25 51°15.822 2°47.885 286.3 11.4 289 16.3
2008-08-26 09:13:30 51°15.827 2°47.861 286.7 11.4 290 16.2
2008-08-26 09:13:35 51°15.832 2°47.837 287 11.4 290 16.4
2008-08-26 09:13:40 51°15.838 2°47.813 287.1 11.4 289 16.5
2008-08-26 09:13:45 51°15.843 2°47.789 286.2 11.5 288 16.6
2008-08-26 09:13:50 51°15.848 2°47.765 286.5 11.4 290 16.6
2008-08-26 09:13:55 51°15.853 2°47.741 286.6 11.4 289 16.8
2008-08-26 09:14:00 51°15.858 2°47.717 286.3 11.4 289 16.9
2008-08-26 09:14:05 51°15.864 2°47.694 286.3 11.4 289 16.9
2008-08-26 09:14:10 51°15.869 2°47.67 286.7 11.5 290 17.2
2008-08-26 09:14:15 51°15.875 2°47.646 287.3 11.5 290 17.6
2008-08-26 09:14:20 51°15.879 2°47.622 286.1 11.5 289 17.4
2008-08-26 09:14:25 51°15.885 2°47.598 286.1 11.4 289 17.6
2008-08-26 09:14:30 51°15.89 2°47.574 285.5 11.4 288 17.7
2008-08-26 09:14:35 51°15.895 2°47.55 285.7 11.3 289 17.6
2008-08-26 09:14:40 51°15.9 2°47.527 285.9 11.4 289 17.6
2008-08-26 09:14:45 51°15.905 2°47.503 286.3 11.4 290 17.8
2008-08-26 09:14:50 51°15.911 2°47.479 286.3 11.4 290 17.8
2008-08-26 09:14:55 51°15.916 2°47.456 286.6 11.3 289 17.8
2008-08-26 09:15:00 51°15.921 2°47.432 286.5 11.4 289 17.7
2008-08-26 09:15:05 51°15.926 2°47.408 286 11.4 288 17.9
2008-08-26 09:15:10 51°15.931 2°47.384 285.8 11.4 289 17.7
2008-08-26 09:15:15 51°15.936 2°47.36 285.9 11.4 288 17.6
2008-08-26 09:15:20 51°15.941 2°47.336 285.7 11.5 289 17.9
2008-08-26 09:15:25 51°15.946 2°47.312 285.7 11.4 289 18
2008-08-26 09:15:30 51°15.952 2°47.288 286.3 11.4 289 18.1
2008-08-26 09:15:35 51°15.957 2°47.265 286.4 11.4 289 18.1
2008-08-26 09:15:40 51°15.962 2°47.241 286.1 11.4 290 18.1
2008-08-26 09:15:45 51°15.967 2°47.217 286.3 11.3 289 18.1
2008-08-26 09:15:50 51°15.973 2°47.193 286.4 11.4 290 18.1
2008-08-26 09:15:55 51°15.978 2°47.17 286.5 11.4 290 18.1
2008-08-26 09:16:00 51°15.983 2°47.146 286.6 11.3 289 18.2
2008-08-26 09:16:05 51°15.989 2°47.123 286.1 11.4 290 18.1
2008-08-26 09:16:10 51°15.994 2°47.099 285.9 11.3 289 18.1
2008-08-26 09:16:15 51°15.999 2°47.075 285.7 11.3 289 17.9
2008-08-26 09:16:20 51°16.004 2°47.052 285.3 11.3 289 17.8
2008-08-26 09:16:25 51°16.009 2°47.028 285.7 11.4 288 17.7
2008-08-26 09:16:30 51°16.014 2°47.004 285.1 11.4 288 17.6
2008-08-26 09:16:35 51°16.019 2°46.98 285.2 11.4 289 17.5
2008-08-26 09:16:40 51°16.024 2°46.956 285.3 11.4 288 17.4
2008-08-26 09:16:45 51°16.029 2°46.932 284.8 11.4 288 17.2
2008-08-26 09:16:50 51°16.033 2°46.908 284.3 11.4 287 17.1
2008-08-26 09:16:55 51°16.038 2°46.884 284 11.4 287 17
2008-08-26 09:17:00 51°16.042 2°46.86 283.9 11.4 286 17
2008-08-26 09:17:05 51°16.047 2°46.836 283.1 11.4 286 16.7
2008-08-26 09:17:10 51°16.051 2°46.811 283.3 11.4 287 16.6
2008-08-26 09:17:15 51°16.056 2°46.787 283.6 11.4 287 16.5
2008-08-26 09:17:20 51°16.061 2°46.763 283.8 11.4 288 16.5
2008-08-26 09:17:25 51°16.065 2°46.739 283.7 11.4 287 16.3
2008-08-26 09:17:30 51°16.07 2°46.715 283.8 11.4 287 16.1
2008-08-26 09:17:35 51°16.074 2°46.691 283.6 11.3 286 15.8
2008-08-26 09:17:40 51°16.079 2°46.667 282.9 11.4 287 15.7
2008-08-26 09:17:45 51°16.083 2°46.643 283.6 11.4 287 14.8
2008-08-26 09:17:50 51°16.088 2°46.619 283.7 11.4 287 14.4
2008-08-26 09:17:55 51°16.093 2°46.595 283.9 11.4 288 14.9
2008-08-26 09:18:00 51°16.098 2°46.571 283.9 11.4 288 14.9
2008-08-26 09:18:05 51°16.103 2°46.547 284 11.4 288 15
2008-08-26 09:18:10 51°16.107 2°46.523 284.1 11.4 288 14.9
2008-08-26 09:18:15 51°16.112 2°46.499 283.7 11.4 287 14.7
2008-08-26 09:18:20 51°16.117 2°46.475 283.7 11.4 288 14.6
2008-08-26 09:18:25 51°16.122 2°46.451 284.1 11.4 288 14.5
2008-08-26 09:18:30 51°16.127 2°46.427 284.4 11.4 288 14.3
2008-08-26 09:18:35 51°16.132 2°46.404 285 11.4 291 14
2008-08-26 09:18:40 51°16.137 2°46.38 285.9 11.4 289 13.9
2008-08-26 09:18:45 51°16.143 2°46.356 286.2 11.5 290 13.9
2008-08-26 09:18:50 51°16.148 2°46.332 286.6 11.4 290 12.2
2008-08-26 09:18:55 51°16.154 2°46.309 286.6 11.4 291 12.2
2008-08-26 09:19:00 51°16.159 2°46.285 286.9 11.4 291 12.5
2008-08-26 09:19:05 51°16.165 2°46.262 287.1 11.4 290 12.8
2008-08-26 09:19:10 51°16.17 2°46.238 286.6 11.5 290 12.8
2008-08-26 09:19:15 51°16.176 2°46.214 286.4 11.5 290 12.9
2008-08-26 09:19:20 51°16.181 2°46.19 286.1 11.5 289 12.7
2008-08-26 09:19:25 51°16.186 2°46.166 285.2 11.5 289 12.7
2008-08-26 09:19:30 51°16.192 2°46.143 285.4 11.5 290 12.5
2008-08-26 09:19:35 51°16.197 2°46.119 285.9 11.4 289 12.4
2008-08-26 09:19:40 51°16.202 2°46.095 285.7 11.5 289 12.4
2008-08-26 09:19:45 51°16.208 2°46.071 285.3 11.5 289 12.4
2008-08-26 09:19:50 51°16.213 2°46.047 284.5 11.5 289 12.3
2008-08-26 09:19:55 51°16.218 2°46.023 285 11.5 289 12.3
2008-08-26 09:20:00 51°16.223 2°45.999 285 11.5 289 12.4
2008-08-26 09:20:05 51°16.228 2°45.975 285.2 11.6 289 12.3
2008-08-26 09:20:10 51°16.233 2°45.95 285.2 11.5 289 12.3
2008-08-26 09:20:15 51°16.238 2°45.926 284.6 11.5 288 12.3
2008-08-26 09:20:20 51°16.243 2°45.902 284.1 11.6 288 12.2
2008-08-26 09:20:25 51°16.248 2°45.878 283.9 11.5 288 12
2008-08-26 09:20:30 51°16.253 2°45.854 283.9 11.5 289 11.9
2008-08-26 09:20:35 51°16.258 2°45.829 284.3 11.5 288 12
2008-08-26 09:20:40 51°16.263 2°45.805 285.2 11.5 290 12
2008-08-26 09:20:45 51°16.269 2°45.781 285.9 11.5 291 11.9
2008-08-26 09:20:50 51°16.275 2°45.758 286.6 11.5 290 12.1
2008-08-26 09:20:55 51°16.28 2°45.733 286.4 11.6 289 12
2008-08-26 09:21:00 51°16.285 2°45.71 285.9 11.6 290 12.1
2008-08-26 09:21:05 51°16.29 2°45.686 285.9 11.6 291 12
2008-08-26 09:21:10 51°16.295 2°45.662 286.9 11.6 290 12.2
2008-08-26 09:21:15 51°16.3 2°45.638 286.5 11.6 289 12.2
2008-08-26 09:21:20 51°16.306 2°45.614 285.9 11.6 290 12.1
2008-08-26 09:21:25 51°16.312 2°45.59 286.3 11.6 291 12.1
2008-08-26 09:21:30 51°16.318 2°45.566 286.7 11.6 291 12.4
2008-08-26 09:21:35 51°16.323 2°45.541 286.1 11.6 288 12.5
2008-08-26 09:21:40 51°16.328 2°45.517 285 11.6 288 12.6
2008-08-26 09:21:45 51°16.333 2°45.493 284.4 11.5 288 12.6
2008-08-26 09:21:50 51°16.339 2°45.469 284.4 11.6 290 12.4
2008-08-26 09:21:55 51°16.344 2°45.444 285.4 11.6 290 12.7
2008-08-26 09:22:00 51°16.349 2°45.421 285.7 11.5 291 12.5
2008-08-26 09:22:05 51°16.355 2°45.398 286.8 11.6 293 12.4
2008-08-26 09:22:10 51°16.362 2°45.375 289.8 11.6 297 12.7
2008-08-26 09:22:15 51°16.37 2°45.352 292.1 11.6 298 12.5
2008-08-26 09:22:20 51°16.378 2°45.329 293.2 11.7 298 12.5
2008-08-26 09:22:25 51°16.386 2°45.306 293.9 11.6 299 12.6
2008-08-26 09:22:30 51°16.394 2°45.284 294.4 11.7 299 12.5
2008-08-26 09:22:35 51°16.401 2°45.262 294.9 11.7 300 12.5
2008-08-26 09:22:40 51°16.409 2°45.239 295.4 11.7 300 12.7
2008-08-26 09:22:45 51°16.417 2°45.217 295.4 11.7 299 13.1
2008-08-26 09:22:50 51°16.425 2°45.194 295 11.6 300 12.9
2008-08-26 09:22:55 51°16.434 2°45.171 295.4 11.7 300 13
2008-08-26 09:23:00 51°16.442 2°45.149 296.1 11.7 301 13.2
2008-08-26 09:23:05 51°16.451 2°45.127 296.5 11.7 301 13
2008-08-26 09:23:10 51°16.46 2°45.105 297.1 11.7 303 13.1
2008-08-26 09:23:15 51°16.469 2°45.083 297.5 11.6 301 13.1
2008-08-26 09:23:20 51°16.477 2°45.061 296.5 11.6 302 13.2
2008-08-26 09:23:25 51°16.486 2°45.039 297.4 11.6 302 13.1
2008-08-26 09:23:30 51°16.494 2°45.017 297.5 11.7 301 13.2
2008-08-26 09:23:35 51°16.503 2°44.995 297.4 11.7 302 13
2008-08-26 09:23:40 51°16.511 2°44.973 297.7 11.7 301 13.2
2008-08-26 09:23:45 51°16.52 2°44.95 297.5 11.7 301 12.9
2008-08-26 09:23:50 51°16.528 2°44.928 297.5 11.8 302 12.7
2008-08-26 09:23:55 51°16.537 2°44.906 297.9 11.8 302 12.6
2008-08-26 09:24:00 51°16.546 2°44.884 298.2 11.8 302 12.7
2008-08-26 09:24:05 51°16.554 2°44.862 298.2 11.9 302 13
2008-08-26 09:24:10 51°16.562 2°44.84 298.2 11.8 302 13.1
2008-08-26 09:24:15 51°16.57 2°44.818 297.6 11.8 301 13.1
2008-08-26 09:24:20 51°16.578 2°44.795 297 11.8 300 13.2
2008-08-26 09:24:25 51°16.587 2°44.772 296.5 11.7 300 13
2008-08-26 09:24:30 51°16.595 2°44.75 296 11.8 300 12.8
2008-08-26 09:24:35 51°16.604 2°44.727 296 11.8 300 13.1
2008-08-26 09:24:40 51°16.612 2°44.704 295.8 11.8 300 13.4
2008-08-26 09:24:45 51°16.62 2°44.682 296 11.7 301 13.4
2008-08-26 09:24:50 51°16.629 2°44.66 296.4 11.7 301 13.5
2008-08-26 09:24:55 51°16.637 2°44.637 296.7 11.7 301 14
2008-08-26 09:25:00 51°16.646 2°44.615 297 11.8 302 13.8
2008-08-26 09:25:05 51°16.654 2°44.593 297.4 11.7 301 13.9
2008-08-26 09:25:10 51°16.662 2°44.571 297.1 11.8 302 13.8
2008-08-26 09:25:15 51°16.67 2°44.549 297.6 11.8 301 14.4
2008-08-26 09:25:20 51°16.679 2°44.527 297.6 11.7 302 14.5
2008-08-26 09:25:25 51°16.687 2°44.505 297.5 11.8 302 14.6
2008-08-26 09:25:30 51°16.696 2°44.483 297.6 11.8 302 15.1
2008-08-26 09:25:35 51°16.704 2°44.46 297.7 11.8 302 15.5
2008-08-26 09:25:40 51°16.713 2°44.438 297.6 11.8 301 15.6
2008-08-26 09:25:45 51°16.721 2°44.416 297.4 11.8 301 15.7
2008-08-26 09:25:50 51°16.729 2°44.394 297.5 11.8 302 16
2008-08-26 09:25:55 51°16.738 2°44.371 297.6 11.8 301 16.2
2008-08-26 09:26:00 51°16.746 2°44.349 296.8 11.8 300 16.1
2008-08-26 09:26:05 51°16.755 2°44.326 296.9 11.8 301 16.1
2008-08-26 09:26:10 51°16.764 2°44.304 296.5 11.8 300 16.2
2008-08-26 09:26:15 51°16.773 2°44.281 296.9 11.8 301 16.3
2008-08-26 09:26:20 51°16.782 2°44.258 297.2 11.8 301 16.5
2008-08-26 09:26:25 51°16.79 2°44.235 296.9 11.7 300 16.4
2008-08-26 09:26:30 51°16.798 2°44.213 296.2 11.8 299 16.4
2008-08-26 09:26:35 51°16.806 2°44.19 295.6 11.8 299 16.7
2008-08-26 09:26:40 51°16.815 2°44.167 295.4 11.8 301 16.7
2008-08-26 09:26:45 51°16.823 2°44.145 296.3 11.7 300 16.7
2008-08-26 09:26:50 51°16.832 2°44.122 296.5 11.7 301 16.5
2008-08-26 09:26:55 51°16.84 2°44.1 296.9 11.7 300 16.8
2008-08-26 09:27:00 51°16.847 2°44.078 296.8 11.7 300 16.7
2008-08-26 09:27:05 51°16.855 2°44.055 295.5 11.6 295 16.9
2008-08-26 09:27:10 51°16.86 2°44.032 292 11.6 293 17
2008-08-26 09:27:15 51°16.867 2°44.009 290.2 11.5 292 16.9
2008-08-26 09:27:20 51°16.872 2°43.985 287.3 11.5 288 16.7
2008-08-26 09:27:25 51°16.876 2°43.961 285.2 11.4 288 16.5
2008-08-26 09:27:30 51°16.88 2°43.936 283 11.4 285 16.6
2008-08-26 09:27:35 51°16.884 2°43.912 280.3 11.4 283 16.7
2008-08-26 09:27:40 51°16.887 2°43.887 278.9 11.4 281 16.3
2008-08-26 09:27:45 51°16.89 2°43.862 277.3 11.3 279 16.1
2008-08-26 09:27:50 51°16.892 2°43.837 274.7 11.3 276 16.2
2008-08-26 09:27:55 51°16.893 2°43.812 272.3 11.3 274 16.3
2008-08-26 09:28:00 51°16.893 2°43.787 270.6 11.2 272 16.2
2008-08-26 09:28:05 51°16.893 2°43.762 268 11.3 269 16.4
2008-08-26 09:28:10 51°16.893 2°43.737 266.3 11.3 269 16.4
2008-08-26 09:28:15 51°16.892 2°43.712 265 11.3 266 16.2
2008-08-26 09:28:20 51°16.891 2°43.688 263.8 11.3 267 15.9
2008-08-26 09:28:25 51°16.89 2°43.662 262.9 11.3 265 15.9
2008-08-26 09:28:30 51°16.888 2°43.637 262.2 11.4 265 15.5
2008-08-26 09:28:35 51°16.887 2°43.612 261.8 11.4 265 14.9
2008-08-26 09:28:40 51°16.886 2°43.587 261.6 11.4 265 15.8
2008-08-26 09:28:45 51°16.884 2°43.562 261.6 11.4 265 15.7
2008-08-26 09:28:50 51°16.883 2°43.536 261.5 11.4 264 15.4
2008-08-26 09:28:55 51°16.882 2°43.511 261.6 11.4 265 15.2
2008-08-26 09:29:00 51°16.88 2°43.486 262 11.4 265 15.1
2008-08-26 09:29:05 51°16.879 2°43.461 262.4 11.4 266 14.9
2008-08-26 09:29:10 51°16.878 2°43.436 263 11.5 267 15.1
2008-08-26 09:29:15 51°16.877 2°43.41 263.3 11.5 265 14.8
2008-08-26 09:29:20 51°16.875 2°43.385 262.4 11.5 265 15.3
2008-08-26 09:29:25 51°16.874 2°43.36 261.7 11.5 264 14.8
2008-08-26 09:29:30 51°16.872 2°43.334 261.5 11.5 265 15.1
2008-08-26 09:29:35 51°16.871 2°43.309 261.7 11.4 264 15.1
2008-08-26 09:29:40 51°16.869 2°43.284 261.2 11.5 264 15.1
2008-08-26 09:29:45 51°16.868 2°43.259 261.1 11.4 263 14.8
2008-08-26 09:29:50 51°16.866 2°43.233 260.7 11.5 264 14.7
2008-08-26 09:29:55 51°16.865 2°43.208 261.7 11.4 267 14.4
2008-08-26 09:30:00 51°16.864 2°43.183 262.4 11.4 266 14
2008-08-26 09:30:05 51°16.865 2°43.158 265.1 11.4 273 13.1
2008-08-26 09:30:10 51°16.866 2°43.133 268.7 11.4 274 13
2008-08-26 09:30:15 51°16.867 2°43.108 270.6 11.4 277 14.3
2008-08-26 09:30:20 51°16.871 2°43.083 275 11.4 283 14.5
2008-08-26 09:30:25 51°16.874 2°43.059 278 11.5 282 14.7
2008-08-26 09:30:30 51°16.878 2°43.034 280.1 11.5 286 14.6
2008-08-26 09:30:35 51°16.883 2°43.01 282.4 11.3 288 14.1
2008-08-26 09:30:40 51°16.888 2°42.986 284 11.5 291 14.1
2008-08-26 09:30:45 51°16.895 2°42.963 287.9 11.4 295 14.1
2008-08-26 09:30:50 51°16.902 2°42.941 289.8 11.4 295 13.2
2008-08-26 09:30:55 51°16.909 2°42.918 291.8 11.4 298 13
2008-08-26 09:31:00 51°16.917 2°42.896 293.9 11.5 299 12.5
2008-08-26 09:31:05 51°16.925 2°42.874 295.4 11.5 301 11.9
2008-08-26 09:31:09 51°16.932 2°42.857 296.4 11.5 300 11.7
2008-08-26 09:31:15 51°16.942 2°42.83 296.8 11.6 301 11.2
2008-08-26 09:31:20 51°16.95 2°42.808 297.2 11.6 303 10.1
2008-08-26 09:31:25 51°16.959 2°42.787 297.9 11.5 302 12.1
2008-08-26 09:31:30 51°16.969 2°42.765 299.1 11.6 305 12.4
2008-08-26 09:31:35 51°16.978 2°42.744 300.4 11.8 305 12.3
2008-08-26 09:31:40 51°16.988 2°42.723 301.2 11.7 307 11.7
2008-08-26 09:31:45 51°16.998 2°42.703 303 11.7 307 11.4
2008-08-26 09:31:50 51°17.008 2°42.682 303.6 11.8 308 10.9
2008-08-26 09:31:55 51°17.018 2°42.662 304.3 11.8 309 10.6
2008-08-26 09:32:00 51°17.028 2°42.642 304.8 11.8 310 10.3
2008-08-26 09:32:05 51°17.038 2°42.622 305.5 11.7 309 11.6
2008-08-26 09:32:10 51°17.048 2°42.602 304.5 11.8 308 11.6
2008-08-26 09:32:15 51°17.058 2°42.581 303.8 11.6 307 10.1
2008-08-26 09:32:20 51°17.068 2°42.561 303.3 11.6 305 10.8
2008-08-26 09:32:25 51°17.075 2°42.538 298.5 11.5 300 11.4
2008-08-26 09:32:30 51°17.084 2°42.517 297.1 11.5 301 11.5
2008-08-26 09:32:35 51°17.091 2°42.493 293.1 11.3 293 11.6
2008-08-26 09:32:40 51°17.098 2°42.47 290.8 11.4 294 11.8
2008-08-26 09:32:45 51°17.103 2°42.446 287.3 11.3 288 12
2008-08-26 09:32:50 51°17.108 2°42.423 284.3 11.3 288 12.3
2008-08-26 09:32:55 51°17.11 2°42.398 280.3 11.2 280 12.9
2008-08-26 09:33:00 51°17.113 2°42.374 277.9 11.1 281 13.5
2008-08-26 09:33:05 51°17.114 2°42.35 272.9 11.1 272 14.1
2008-08-26 09:33:10 51°17.114 2°42.326 269.2 11.1 273 15.2
2008-08-26 09:33:15 51°17.114 2°42.302 266.9 11.1 268 16.7
2008-08-26 09:33:20 51°17.113 2°42.277 264.5 11.1 267 18.2
2008-08-26 09:33:25 51°17.113 2°42.252 262.6 11.1 266 19.1
2008-08-26 09:33:30 51°17.111 2°42.228 260.5 11.1 263 19.8
2008-08-26 09:33:35 51°17.109 2°42.204 260 11.2 265 20.3
2008-08-26 09:33:40 51°17.107 2°42.18 259.9 11.1 263 20.5
2008-08-26 09:33:45 51°17.105 2°42.155 258.7 11.1 262 20.8
2008-08-26 09:33:50 51°17.103 2°42.131 258.2 11.1 262 21.1
2008-08-26 09:33:55 51°17.101 2°42.107 257.6 11.1 262 21.4
2008-08-26 09:34:00 51°17.099 2°42.082 257.7 11.1 262 21.6
2008-08-26 09:34:05 51°17.097 2°42.058 257.8 11.2 261 21.9
2008-08-26 09:34:10 51°17.094 2°42.033 257.4 11.2 262 22
2008-08-26 09:34:15 51°17.092 2°42.009 257.2 11.1 262 22
2008-08-26 09:34:20 51°17.089 2°41.984 257.3 11.2 262 22.2
2008-08-26 09:34:25 51°17.087 2°41.96 257.6 11.2 262 22.5
2008-08-26 09:34:30 51°17.084 2°41.936 257.2 11.2 260 22.7
2008-08-26 09:34:35 51°17.082 2°41.911 257.3 11.2 262 22.7
2008-08-26 09:34:40 51°17.08 2°41.887 257.4 11.2 262 22.9
2008-08-26 09:34:45 51°17.078 2°41.862 257.7 11.3 263 23.1
2008-08-26 09:34:50 51°17.076 2°41.837 258.3 11.2 263 23.3
2008-08-26 09:34:55 51°17.074 2°41.813 258.3 11.2 262 23.3
2008-08-26 09:35:00 51°17.072 2°41.788 257.8 11.3 263 23.5
2008-08-26 09:35:05 51°17.07 2°41.764 258.3 11.2 262 23.6
2008-08-26 09:35:10 51°17.068 2°41.739 258.9 11.2 264 23.5
2008-08-26 09:35:15 51°17.066 2°41.715 259 11.1 264 23.5
2008-08-26 09:35:20 51°17.065 2°41.69 260.3 11.2 269 23.7
2008-08-26 09:35:25 51°17.066 2°41.666 265.1 11.2 272 23.9
2008-08-26 09:35:30 51°17.067 2°41.641 267.7 11.2 273 24.1
2008-08-26 09:35:35 51°17.069 2°41.616 269.5 11.2 278 24.2
2008-08-26 09:35:40 51°17.072 2°41.592 273.5 11.3 280 24.3
2008-08-26 09:35:45 51°17.074 2°41.567 276.1 11.3 283 24.4
2008-08-26 09:35:50 51°17.079 2°41.543 278.2 11.4 285 24.4
2008-08-26 09:35:55 51°17.083 2°41.518 280.4 11.4 286 24.7
2008-08-26 09:36:00 51°17.088 2°41.494 281.6 11.4 288 24.5
2008-08-26 09:36:05 51°17.093 2°41.47 282.4 11.5 288 24.3
2008-08-26 09:36:10 51°17.099 2°41.447 285.9 11.5 294 24.7
2008-08-26 09:36:15 51°17.106 2°41.425 289.9 11.5 296 24.7
2008-08-26 09:36:20 51°17.114 2°41.402 291.8 11.6 299 24.6
2008-08-26 09:36:25 51°17.121 2°41.38 294.2 11.6 299 24.5
2008-08-26 09:36:30 51°17.13 2°41.358 296 11.7 302 24.7
2008-08-26 09:36:35 51°17.139 2°41.336 296.8 11.7 301 24.7
2008-08-26 09:36:40 51°17.148 2°41.315 298.2 11.8 306 24.8
2008-08-26 09:36:45 51°17.157 2°41.294 299.9 11.7 305 24.8
2008-08-26 09:36:50 51°17.167 2°41.274 301.8 11.7 308 24.7
2008-08-26 09:36:55 51°17.178 2°41.254 304.1 11.8 310 24.8
2008-08-26 09:37:00 51°17.189 2°41.234 305.5 11.7 311 24.6
2008-08-26 09:37:05 51°17.199 2°41.214 306.7 11.9 311 24.7
2008-08-26 09:37:10 51°17.21 2°41.195 307.6 11.8 312 24.7
2008-08-26 09:37:15 51°17.222 2°41.176 308.3 11.9 313 24.8
2008-08-26 09:37:20 51°17.233 2°41.156 308.7 11.9 313 24.8
2008-08-26 09:37:25 51°17.244 2°41.137 308.8 11.9 314 24.8
2008-08-26 09:37:30 51°17.255 2°41.118 309.6 11.9 314 24.6
2008-08-26 09:37:35 51°17.266 2°41.099 309.8 11.9 314 24.7
2008-08-26 09:37:40 51°17.278 2°41.08 310.2 11.9 314 24.6
2008-08-26 09:37:45 51°17.289 2°41.061 310.4 12 313 24.5
2008-08-26 09:37:50 51°17.301 2°41.042 309.7 11.9 313 24.6
2008-08-26 09:37:55 51°17.311 2°41.023 309.2 11.9 312 24.4
2008-08-26 09:38:00 51°17.323 2°41.003 308.8 11.9 313 24.1
2008-08-26 09:38:05 51°17.334 2°40.984 309.1 12 313 24.1
2008-08-26 09:38:10 51°17.345 2°40.964 309.1 12 312 24
2008-08-26 09:38:15 51°17.357 2°40.945 309.3 12 314 23.9
2008-08-26 09:38:20 51°17.368 2°40.926 309.4 12 313 23.8
2008-08-26 09:38:25 51°17.379 2°40.906 309.5 12 313 23.8
2008-08-26 09:38:30 51°17.391 2°40.887 309.6 12 313 23.5
2008-08-26 09:38:35 51°17.402 2°40.868 309.8 12.1 315 23.5
2008-08-26 09:38:40 51°17.414 2°40.848 310.5 12.1 314 22.9
2008-08-26 09:38:45 51°17.425 2°40.83 310.6 12.1 315 22.7
2008-08-26 09:38:50 51°17.437 2°40.811 310.9 12.1 315 22.5
2008-08-26 09:38:55 51°17.449 2°40.792 311.3 12.1 315 22.5
2008-08-26 09:39:00 51°17.461 2°40.773 311.6 12.1 315 22.5
2008-08-26 09:39:05 51°17.473 2°40.754 311 12 315 22
2008-08-26 09:39:10 51°17.485 2°40.735 311.1 12 314 21.4
2008-08-26 09:39:15 51°17.496 2°40.716 310.3 12 313 20.6
2008-08-26 09:39:20 51°17.508 2°40.697 309.9 12 313 20.1
2008-08-26 09:39:25 51°17.518 2°40.677 309.2 12 312 19.2
2008-08-26 09:39:30 51°17.53 2°40.658 309.5 12 313 19.1
2008-08-26 09:39:35 51°17.541 2°40.638 309.2 12 313 18.9
2008-08-26 09:39:40 51°17.553 2°40.62 309.8 11.9 314 17.7
2008-08-26 09:39:45 51°17.564 2°40.601 309.8 11.9 313 17.7
2008-08-26 09:39:50 51°17.575 2°40.581 309 11.8 314 18.7
2008-08-26 09:39:55 51°17.586 2°40.563 309.6 11.8 313 18.8
2008-08-26 09:40:00 51°17.597 2°40.543 309.7 11.8 312 18.4
2008-08-26 09:40:05 51°17.608 2°40.524 308.7 11.9 313 17.6
2008-08-26 09:40:10 51°17.619 2°40.504 308.6 11.9 312 17
2008-08-26 09:40:15 51°17.631 2°40.485 309.5 11.9 313 18
2008-08-26 09:40:20 51°17.642 2°40.466 309.3 11.9 313 18.1
2008-08-26 09:40:25 51°17.653 2°40.446 309.3 11.9 313 18.3
2008-08-26 09:40:30 51°17.664 2°40.427 309.7 11.9 313 17.3
2008-08-26 09:40:35 51°17.676 2°40.408 309.6 11.8 314 14.4
2008-08-26 09:40:40 51°17.687 2°40.389 309.6 11.8 314 15.8
2008-08-26 09:40:45 51°17.698 2°40.37 310 11.9 314 16.5
2008-08-26 09:40:50 51°17.71 2°40.351 310 11.9 313 15
2008-08-26 09:40:55 51°17.721 2°40.332 309.8 11.9 313 16.2
2008-08-26 09:41:00 51°17.732 2°40.313 309.9 11.9 314 16.5
2008-08-26 09:41:05 51°17.744 2°40.294 310.3 11.9 313 16.8
2008-08-26 09:41:10 51°17.755 2°40.274 309.8 11.9 313 17.1
2008-08-26 09:41:15 51°17.766 2°40.255 309.2 11.8 312 15.6
2008-08-26 09:41:20 51°17.777 2°40.236 308.4 11.8 313 14.1
2008-08-26 09:41:25 51°17.788 2°40.217 308.4 11.8 314 15.8
2008-08-26 09:41:30 51°17.799 2°40.197 309.1 11.8 313 17.2
2008-08-26 09:41:35 51°17.81 2°40.178 308 11.9 312 17.6
2008-08-26 09:41:40 51°17.821 2°40.158 308 11.9 313 15.5
2008-08-26 09:41:45 51°17.833 2°40.139 308.5 11.9 313 17
2008-08-26 09:41:50 51°17.844 2°40.12 309.1 11.9 314 17.9
2008-08-26 09:41:55 51°17.855 2°40.101 309.4 11.9 313 18.7
2008-08-26 09:42:00 51°17.867 2°40.082 309.1 11.9 313 18.5
2008-08-26 09:42:05 51°17.878 2°40.063 308.9 11.9 314 18.8
2008-08-26 09:42:10 51°17.89 2°40.045 309.9 11.9 316 18.8
2008-08-26 09:42:15 51°17.902 2°40.026 310.1 11.9 314 19.5
2008-08-26 09:42:20 51°17.913 2°40.007 309.5 11.9 315 19.9
2008-08-26 09:42:25 51°17.925 2°39.988 309.8 11.9 315 20.4
2008-08-26 09:42:30 51°17.937 2°39.97 310.8 11.9 316 21.2
2008-08-26 09:42:35 51°17.949 2°39.951 310.6 11.9 315 21.6
2008-08-26 09:42:40 51°17.961 2°39.933 310.2 11.9 315 22
2008-08-26 09:42:45 51°17.973 2°39.914 310.3 11.9 317 21.2
2008-08-26 09:42:50 51°17.985 2°39.896 310.7 11.9 316 15.1
2008-08-26 09:42:55 51°17.997 2°39.878 311.3 11.8 316 14.5
2008-08-26 09:43:00 51°18.008 2°39.86 311.1 11.7 316 15.3
2008-08-26 09:43:05 51°18.02 2°39.841 310.2 11.7 315 16
2008-08-26 09:43:10 51°18.031 2°39.823 310.1 11.8 315 16.3
2008-08-26 09:43:15 51°18.043 2°39.805 310.5 11.8 317 17.4
2008-08-26 09:43:20 51°18.056 2°39.787 311.4 11.9 317 19.6
2008-08-26 09:43:25 51°18.067 2°39.769 311.6 11.9 317 22.1
2008-08-26 09:43:30 51°18.08 2°39.752 311.8 12 318 24
2008-08-26 09:43:35 51°18.092 2°39.733 311.7 11.9 317 24.9
2008-08-26 09:43:40 51°18.104 2°39.716 312 12 317 25.8
2008-08-26 09:43:45 51°18.116 2°39.697 311.5 12 317 26.6
2008-08-26 09:43:50 51°18.128 2°39.679 311 12 315 26.9
2008-08-26 09:43:55 51°18.14 2°39.66 310.1 12 316 27.3
2008-08-26 09:44:00 51°18.152 2°39.641 309.8 12 316 27.5
2008-08-26 09:44:05 51°18.164 2°39.623 309.8 12 316 27.4
2008-08-26 09:44:10 51°18.175 2°39.604 309.6 12 315 27.5
2008-08-26 09:44:15 51°18.187 2°39.585 309.7 12 316 27.5
2008-08-26 09:44:20 51°18.199 2°39.567 310.5 12.1 317 27.5
2008-08-26 09:44:25 51°18.212 2°39.548 310.8 12.1 316 27.7
2008-08-26 09:44:30 51°18.224 2°39.53 310.6 12.1 317 27.9
2008-08-26 09:44:35 51°18.236 2°39.512 311 12.1 316 27.8
2008-08-26 09:44:40 51°18.248 2°39.493 310.6 12.1 316 27.8
2008-08-26 09:44:45 51°18.26 2°39.474 309.3 12 315 27.5
2008-08-26 09:44:50 51°18.272 2°39.456 309.4 12 316 27.6
2008-08-26 09:44:55 51°18.284 2°39.437 309.9 12.1 316 27.4
2008-08-26 09:45:00 51°18.296 2°39.419 309.9 12 316 27.4
2008-08-26 09:45:05 51°18.308 2°39.4 309.7 12 316 26.9
2008-08-26 09:45:10 51°18.32 2°39.382 310.5 12 317 27
2008-08-26 09:45:15 51°18.332 2°39.363 310.7 12.1 316 27
2008-08-26 09:45:20 51°18.344 2°39.345 309.8 12 316 27.1
2008-08-26 09:45:25 51°18.356 2°39.326 309.8 12.1 316 26.5
2008-08-26 09:45:30 51°18.368 2°39.308 310.3 12 316 27
2008-08-26 09:45:35 51°18.38 2°39.29 310.7 12.1 316 26.7
2008-08-26 09:45:40 51°18.392 2°39.271 310.2 12.1 316 27
2008-08-26 09:45:45 51°18.404 2°39.253 311 12.1 318 27
2008-08-26 09:45:50 51°18.417 2°39.235 312 12.1 318 27
2008-08-26 09:45:55 51°18.43 2°39.218 312.9 12.1 321 26.2
2008-08-26 09:46:00 51°18.442 2°39.2 313.5 12.1 319 26.6
2008-08-26 09:46:05 51°18.455 2°39.183 313.6 12.2 320 26.7
2008-08-26 09:46:10 51°18.468 2°39.165 313.5 12.1 318 26.6
2008-08-26 09:46:15 51°18.481 2°39.147 312.5 12.2 319 26.7
2008-08-26 09:46:21 51°18.496 2°39.126 312.8 12.1 318 26.8
2008-08-26 09:46:25 51°18.506 2°39.112 312.9 12.2 318 26.9
2008-08-26 09:46:30 51°18.518 2°39.094 312.6 12.1 318 27.1
2008-08-26 09:46:35 51°18.531 2°39.075 312.3 12.2 318 27.3
2008-08-26 09:46:40 51°18.543 2°39.057 312.8 12.2 319 27.3
2008-08-26 09:46:45 51°18.556 2°39.039 312.6 12.1 317 27.2
2008-08-26 09:46:50 51°18.568 2°39.021 312.7 12.1 317 27.3
2008-08-26 09:46:55 51°18.581 2°39.003 312.2 12.1 317 27.3
2008-08-26 09:47:00 51°18.593 2°38.985 311.8 12.1 317 27.4
2008-08-26 09:47:05 51°18.605 2°38.966 311.4 12.1 317 27.3
2008-08-26 09:47:10 51°18.617 2°38.947 311.3 12.1 315 27.2
2008-08-26 09:47:15 51°18.629 2°38.929 311.3 12.1 316 27.4
2008-08-26 09:47:20 51°18.641 2°38.91 310.6 12 316 27.4
2008-08-26 09:47:25 51°18.653 2°38.891 310 12 314 27.5
2008-08-26 09:47:30 51°18.665 2°38.872 309.8 12 314 27.6
2008-08-26 09:47:35 51°18.676 2°38.853 309.3 12.1 315 27.7
2008-08-26 09:47:40 51°18.688 2°38.834 309.8 12.1 315 27.8
2008-08-26 09:47:45 51°18.699 2°38.815 310.4 12 314 27.7
2008-08-26 09:47:50 51°18.711 2°38.796 310.4 12 315 27.9
2008-08-26 09:47:55 51°18.723 2°38.777 310.3 12 314 27.8
2008-08-26 09:48:00 51°18.734 2°38.758 309.6 12.1 314 27.9
2008-08-26 09:48:05 51°18.745 2°38.738 309.2 12 313 27.7
2008-08-26 09:48:10 51°18.757 2°38.72 309.8 12 315 27.6
2008-08-26 09:48:15 51°18.769 2°38.701 310.4 12 314 27.6
2008-08-26 09:48:20 51°18.781 2°38.683 310.2 12 315 27.8
2008-08-26 09:48:25 51°18.792 2°38.664 309.8 12 315 27.5
2008-08-26 09:48:30 51°18.804 2°38.645 310 12 314 27.8
2008-08-26 09:48:35 51°18.816 2°38.626 309.4 12 314 27.7
2008-08-26 09:48:40 51°18.827 2°38.607 309.7 12 314 27.9
2008-08-26 09:48:45 51°18.839 2°38.588 309.6 11.9 314 27.8
2008-08-26 09:48:50 51°18.85 2°38.569 309.8 11.9 314 27.7
2008-08-26 09:48:55 51°18.861 2°38.549 308.9 11.9 313 28
2008-08-26 09:49:00 51°18.873 2°38.53 309.5 11.9 314 28
2008-08-26 09:49:05 51°18.884 2°38.511 310.2 11.9 315 28
2008-08-26 09:49:10 51°18.896 2°38.492 310.5 11.9 314 28
2008-08-26 09:49:15 51°18.907 2°38.473 310.6 11.9 315 28
2008-08-26 09:49:20 51°18.918 2°38.454 310.7 12 314 28
2008-08-26 09:49:25 51°18.93 2°38.435 311.3 11.9 315 28
2008-08-26 09:49:30 51°18.942 2°38.417 311.3 11.9 315 28.1
2008-08-26 09:49:35 51°18.954 2°38.398 311 12 315 28
2008-08-26 09:49:40 51°18.965 2°38.379 310.6 11.9 314 28
2008-08-26 09:49:45 51°18.977 2°38.36 310.6 12 313 27.9
2008-08-26 09:49:50 51°18.989 2°38.341 310.9 12 314 27.7
2008-08-26 09:49:55 51°19 2°38.322 310.4 11.9 314 27.7
2008-08-26 09:50:00 51°19.012 2°38.303 310.6 11.9 315 27.2
2008-08-26 09:50:05 51°19.023 2°38.283 310.9 11.9 314 26.9
2008-08-26 09:50:10 51°19.034 2°38.264 310.1 11.9 313 26.6
2008-08-26 09:50:15 51°19.046 2°38.245 310.4 11.9 315 26.7
2008-08-26 09:50:20 51°19.058 2°38.226 310.3 12 313 26.8
2008-08-26 09:50:25 51°19.069 2°38.208 310.5 12 316 26
2008-08-26 09:50:30 51°19.081 2°38.189 310.5 11.9 314 26
2008-08-26 09:50:35 51°19.092 2°38.17 311.1 12 314 25.3
2008-08-26 09:50:40 51°19.105 2°38.151 311.4 12 316 25.3
2008-08-26 09:50:45 51°19.116 2°38.133 311.9 12 317 25.1
2008-08-26 09:50:50 51°19.129 2°38.115 313.5 12 317 24.2
2008-08-26 09:50:55 51°19.141 2°38.097 314.3 12.1 318 24.4
2008-08-26 09:51:00 51°19.154 2°38.079 314.9 12.1 319 23.1
2008-08-26 09:51:05 51°19.166 2°38.061 315.6 12 319 23.1
2008-08-26 09:51:10 51°19.179 2°38.045 316.4 12.1 320 23.6
2008-08-26 09:51:15 51°19.192 2°38.028 316.3 12 320 23.9
2008-08-26 09:51:20 51°19.205 2°38.01 315.6 12 319 24
2008-08-26 09:51:25 51°19.218 2°37.993 316 12 319 24.1
2008-08-26 09:51:30 51°19.23 2°37.976 316.1 12 320 23.7
2008-08-26 09:51:35 51°19.243 2°37.959 316.5 12 319 23.6
2008-08-26 09:51:40 51°19.256 2°37.941 316.4 12 321 23.4
2008-08-26 09:51:45 51°19.269 2°37.924 316.6 12 320 23.4
2008-08-26 09:51:50 51°19.282 2°37.908 316.7 12 321 23.2
2008-08-26 09:51:55 51°19.295 2°37.89 315.7 12.1 320 23.2
2008-08-26 09:52:00 51°19.308 2°37.873 316.1 12 320 22.8
2008-08-26 09:52:05 51°19.32 2°37.855 315.6 12 319 22.6
2008-08-26 09:52:10 51°19.333 2°37.838 316.2 12 320 21.9
2008-08-26 09:52:15 51°19.345 2°37.821 315.9 12 320 21.2
2008-08-26 09:52:20 51°19.358 2°37.804 316.1 12 319 20.3
2008-08-26 09:52:25 51°19.371 2°37.786 314.6 12 318 21.6
2008-08-26 09:52:30 51°19.383 2°37.768 313.7 12 317 22
2008-08-26 09:52:35 51°19.395 2°37.75 313.5 12 317 21.2
2008-08-26 09:52:41 51°19.409 2°37.728 312.6 11.9 317 21
2008-08-26 09:52:45 51°19.419 2°37.713 312.4 11.9 314 21.7
2008-08-26 09:52:50 51°19.431 2°37.695 312.2 11.9 317 22.3
2008-08-26 09:52:55 51°19.443 2°37.677 311.4 11.8 316 21.9
2008-08-26 09:53:00 51°19.454 2°37.658 311.4 11.9 315 21.4
2008-08-26 09:53:05 51°19.466 2°37.64 312 11.9 315 20.8
2008-08-26 09:53:10 51°19.478 2°37.621 311.8 11.9 317 19.4
2008-08-26 09:53:15 51°19.489 2°37.602 311.5 11.9 314 20.1
2008-08-26 09:53:20 51°19.502 2°37.585 312 11.9 316 20.9
2008-08-26 09:53:25 51°19.513 2°37.566 311.5 11.9 316 21.7
2008-08-26 09:53:30 51°19.525 2°37.548 312.3 12 316 22.2
2008-08-26 09:53:35 51°19.537 2°37.53 312.3 12 317 22.8
2008-08-26 09:53:40 51°19.55 2°37.512 312.9 12 318 22.9
2008-08-26 09:53:45 51°19.562 2°37.494 314.3 12 319 23
2008-08-26 09:53:50 51°19.575 2°37.476 314.4 12 319 23.4
2008-08-26 09:53:55 51°19.587 2°37.459 315.3 12 319 23.1
2008-08-26 09:54:00 51°19.6 2°37.442 315.6 12 319 23
2008-08-26 09:54:05 51°19.613 2°37.425 314.6 12 320 23.1
2008-08-26 09:54:09 51°19.623 2°37.411 315.2 12 319 22.8
2008-08-26 09:54:15 51°19.638 2°37.39 315.1 12 319 22.6
2008-08-26 09:54:20 51°19.651 2°37.373 315.4 12 321 21.1
2008-08-26 09:54:25 51°19.663 2°37.356 315.6 12 319 20.9
2008-08-26 09:54:30 51°19.676 2°37.339 315.9 12 321 20.3
2008-08-26 09:54:35 51°19.689 2°37.321 315.5 12 319 20.2
2008-08-26 09:54:41 51°19.704 2°37.301 315.7 12.1 321 21.3
2008-08-26 09:54:45 51°19.715 2°37.287 316.1 12.1 319 21.6
2008-08-26 09:54:50 51°19.728 2°37.27 316.3 12 321 22.4
2008-08-26 09:54:55 51°19.74 2°37.253 316.6 12.1 319 22.6
2008-08-26 09:55:00 51°19.753 2°37.236 316.6 12 321 22.7
2008-08-26 09:55:05 51°19.766 2°37.219 316 11.8 320 23.3
2008-08-26 09:55:10 51°19.778 2°37.203 316.2 11.6 320 23.5
2008-08-26 09:55:15 51°19.79 2°37.186 316.3 11.5 320 23.6
2008-08-26 09:55:20 51°19.803 2°37.17 315.5 11.3 321 23.4
2008-08-26 09:55:25 51°19.815 2°37.155 315.6 10.8 319 23.1
2008-08-26 09:55:30 51°19.825 2°37.14 315.2 10.1 321 23.1
2008-08-26 09:55:35 51°19.836 2°37.127 314.5 9.3 321 22.9
2008-08-26 09:55:40 51°19.845 2°37.115 314.9 8.6 322 22.8
2008-08-26 09:55:45 51°19.853 2°37.103 314.9 8 322 22.5
2008-08-26 09:55:50 51°19.862 2°37.092 314.6 7.7 323 22.6
2008-08-26 09:55:55 51°19.869 2°37.082 314.5 7.1 322 22.6
2008-08-26 09:56:00 51°19.876 2°37.073 313.5 6.7 323 22.4
2008-08-26 09:56:05 51°19.884 2°37.065 313.5 6.4 322 22.4
2008-08-26 09:56:10 51°19.891 2°37.057 313.2 6.1 323 22.8
2008-08-26 09:56:15 51°19.897 2°37.049 313.4 5.7 323 22.5
2008-08-26 09:56:20 51°19.903 2°37.041 312.6 5.5 323 23
2008-08-26 09:56:25 51°19.909 2°37.034 311.2 5.2 322 22.8
2008-08-26 09:56:30 51°19.914 2°37.027 310.1 5 322 22.9
2008-08-26 09:56:35 51°19.92 2°37.02 309.1 4.8 321 23.1
2008-08-26 09:56:40 51°19.925 2°37.014 307.8 4.6 320 23
2008-08-26 09:56:45 51°19.929 2°37.008 306.9 4.4 319 22.9
2008-08-26 09:56:49 51°19.933 2°37.003 305.6 4.3 319 23
2008-08-26 09:56:55 51°19.938 2°36.995 304.6 4.2 319 23.1
2008-08-26 09:57:01 51°19.944 2°36.988 303.4 4.1 318 22.5
2008-08-26 09:57:05 51°19.947 2°36.983 303 4.1 318 22.5
2008-08-26 09:57:10 51°19.951 2°36.977 303.3 4.1 320 22.5
2008-08-26 09:57:15 51°19.956 2°36.971 303.6 4.2 320 22
2008-08-26 09:57:20 51°19.96 2°36.965 303.5 4.4 322 22.3
2008-08-26 09:57:25 51°19.965 2°36.959 304.1 4.5 322 22.1
2008-08-26 09:57:29 51°19.969 2°36.954 305.5 4.5 323 22.2
2008-08-26 09:57:35 51°19.975 2°36.947 307.4 4.5 323 22.3
2008-08-26 09:57:40 51°19.98 2°36.941 308.8 4.5 324 22.5
2008-08-26 09:57:45 51°19.985 2°36.936 309.5 4.3 325 22.5
2008-08-26 09:57:50 51°19.989 2°36.931 309.8 4.1 327 22.7
2008-08-26 09:57:55 51°19.994 2°36.926 309.7 3.8 326 22.9
2008-08-26 09:58:00 51°19.998 2°36.922 309.5 3.6 329 22.8
2008-08-26 09:58:05 51°20.002 2°36.918 309.3 3.4 327 22.9
2008-08-26 09:58:09 51°20.005 2°36.915 309 3.2 329 23
2008-08-26 09:58:15 51°20.01 2°36.911 308.4 3 330 22.9
2008-08-26 09:58:20 51°20.013 2°36.908 308.2 2.8 333 23
2008-08-26 09:58:25 51°20.017 2°36.905 308.4 2.6 333 23.1
2008-08-26 09:58:30 51°20.02 2°36.903 309.6 2.5 338 23.1
2008-08-26 09:58:35 51°20.023 2°36.901 311.3 2.4 343 23
2008-08-26 09:58:41 51°20.027 2°36.899 313.4 2.4 345 23.4
2008-08-26 09:58:45 51°20.029 2°36.898 315.5 2.3 347 23.4
2008-08-26 09:58:50 51°20.032 2°36.897 317.1 2.2 346 23.5
2008-08-26 09:58:55 51°20.035 2°36.896 317.5 2.2 350 23.8
2008-08-26 09:59:00 51°20.038 2°36.895 317.6 2.1 354 23.8
2008-08-26 09:59:05 51°20.041 2°36.895 317.9 2.1 354 24
2008-08-26 09:59:10 51°20.044 2°36.894 317.7 2.1 352 24.1
2008-08-26 09:59:15 51°20.047 2°36.893 316.4 2.1 350 24.6
2008-08-26 09:59:21 51°20.05 2°36.892 314.5 2 349 24.5
2008-08-26 09:59:25 51°20.052 2°36.892 312.9 1.8 351 24.3
2008-08-26 09:59:30 51°20.055 2°36.891 311.8 1.7 353 24.5
2008-08-26 09:59:35 51°20.057 2°36.891 311.2 1.7 355 24.4
2008-08-26 09:59:40 51°20.059 2°36.891 310.6 1.6 358 24.3
2008-08-26 09:59:45 51°20.062 2°36.891 310.7 1.5 1 24.7
2008-08-26 09:59:50 51°20.064 2°36.891 311.3 1.6 6 24.8
2008-08-26 09:59:55 51°20.066 2°36.892 311.8 1.5 8 24.6
2008-08-26 10:00:00 51°20.068 2°36.892 312.6 1.3 7 24.5